createdAt,value
2023-05-04T00:00:33.505Z,66.60
2023-05-04T00:04:38.645Z,66.20
2023-05-04T00:08:41.762Z,66.42
2023-05-04T00:12:46.321Z,66.61
2023-05-04T00:16:49.490Z,66.44
2023-05-04T00:20:54.096Z,66.05
2023-05-04T00:24:57.049Z,65.82
2023-05-04T00:29:00.145Z,65.80
2023-05-04T00:33:03.160Z,65.76
2023-05-04T00:37:08.089Z,65.59
2023-05-04T00:41:11.225Z,65.42
2023-05-04T00:45:16.152Z,65.91
2023-05-04T00:49:21.421Z,65.80
2023-05-04T00:53:26.438Z,65.81
2023-05-04T00:57:29.710Z,65.87
2023-05-04T01:01:32.949Z,65.94
2023-05-04T01:05:39.792Z,65.59
2023-05-04T01:09:47.294Z,65.92
2023-05-04T01:13:52.713Z,65.78
2023-05-04T01:17:55.899Z,65.75
2023-05-04T01:22:00.448Z,65.67
2023-05-04T01:26:11.379Z,65.79
2023-05-04T01:30:20.150Z,65.61
2023-05-04T01:34:24.189Z,65.42
2023-05-04T01:38:29.692Z,65.36
2023-05-04T01:42:32.850Z,65.34
2023-05-04T01:46:36.048Z,65.32
2023-05-04T01:50:39.236Z,65.17
2023-05-04T01:54:43.771Z,65.19
2023-05-04T01:58:46.957Z,65.01
2023-05-04T02:02:50.171Z,65.14
2023-05-04T02:06:55.751Z,65.17
2023-05-04T02:11:00.514Z,65.09
2023-05-04T02:15:03.637Z,65.05
2023-05-04T02:19:07.312Z,64.80
2023-05-04T02:23:11.660Z,65.02
2023-05-04T02:27:16.150Z,64.91
2023-05-04T02:35:25.196Z,65.05
2023-05-04T02:39:28.270Z,64.68
2023-05-04T02:43:32.705Z,65.12
2023-05-04T02:47:36.163Z,65.10
2023-05-04T02:51:39.305Z,65.30
2023-05-04T02:55:42.456Z,65.48
2023-05-04T02:59:46.910Z,65.37
2023-05-04T03:03:49.981Z,65.43
2023-05-04T03:07:53.271Z,65.37
2023-05-04T03:11:56.744Z,65.52
2023-05-04T03:16:01.428Z,65.57
2023-05-04T03:20:05.503Z,65.64
2023-05-04T03:24:09.908Z,65.62
2023-05-04T03:28:13.725Z,65.63
2023-05-04T03:32:19.610Z,65.84
2023-05-04T03:36:22.976Z,66.05
2023-05-04T03:40:26.734Z,65.76
2023-05-04T03:44:30.838Z,65.78
2023-05-04T03:48:35.339Z,65.75
2023-05-04T03:52:40.914Z,65.83
2023-05-04T03:56:44.816Z,65.73
2023-05-04T04:00:51.599Z,66.06
2023-05-04T04:04:56.166Z,65.92
2023-05-04T04:08:59.611Z,66.30
2023-05-04T04:13:02.814Z,66.09
2023-05-04T04:17:06.421Z,65.88
2023-05-04T04:21:11.275Z,66.40
2023-05-04T04:25:15.364Z,66.12
2023-05-04T04:29:18.912Z,66.32
2023-05-04T04:33:21.969Z,66.34
2023-05-04T04:37:26.679Z,66.49
2023-05-04T04:41:29.734Z,66.24
2023-05-04T04:45:34.045Z,66.37
2023-05-04T04:49:38.608Z,66.64
2023-05-04T04:53:43.116Z,66.52
2023-05-04T04:57:46.165Z,66.46
2023-05-04T05:01:49.872Z,66.82
2023-05-04T05:05:52.996Z,66.71
2023-05-04T05:09:57.832Z,66.53
2023-05-04T05:14:00.893Z,66.61
2023-05-04T05:18:04.019Z,66.78
2023-05-04T05:22:07.174Z,66.63
2023-05-04T05:26:11.813Z,66.31
2023-05-04T05:30:15.151Z,66.10
2023-05-04T05:34:18.174Z,65.46
2023-05-04T05:38:21.619Z,65.65
2023-05-04T05:42:26.006Z,65.24
2023-05-04T05:46:29.172Z,64.80
2023-05-04T05:50:32.176Z,64.63
2023-05-04T05:54:35.873Z,64.73
2023-05-04T05:58:40.655Z,63.88
2023-05-04T06:02:43.770Z,63.26
2023-05-04T06:06:46.832Z,63.04
2023-05-04T06:10:51.610Z,61.93
2023-05-04T06:14:56.024Z,61.49
2023-05-04T06:18:59.962Z,61.01
2023-05-04T06:23:02.985Z,61.78
2023-05-04T06:27:06.034Z,61.63
2023-05-04T06:31:10.578Z,60.77
2023-05-04T06:35:13.860Z,60.17
2023-05-04T06:39:16.944Z,60.44
2023-05-04T06:43:19.926Z,60.40
2023-05-04T06:47:24.400Z,60.22
2023-05-04T06:51:27.476Z,59.98
2023-05-04T06:55:30.599Z,59.97
2023-05-04T06:59:33.626Z,59.72
2023-05-04T07:03:38.957Z,59.31
2023-05-04T07:07:42.025Z,58.17
2023-05-04T07:11:45.170Z,58.93
2023-05-04T07:15:48.195Z,58.83
2023-05-04T07:19:53.265Z,58.59
2023-05-04T07:23:56.383Z,58.44
2023-05-04T07:27:59.497Z,58.42
2023-05-04T07:32:02.639Z,57.90
2023-05-04T07:36:07.581Z,58.04
2023-05-04T07:40:11.617Z,57.82
2023-05-04T07:44:14.670Z,57.61
2023-05-04T07:48:18.159Z,56.68
2023-05-04T07:52:22.818Z,57.21
2023-05-04T07:56:25.862Z,56.89
2023-05-04T08:00:29.261Z,56.83
2023-05-04T08:04:32.360Z,56.75
2023-05-04T08:08:36.853Z,55.51
2023-05-04T08:12:41.495Z,55.56
2023-05-04T08:16:44.537Z,54.74
2023-05-04T08:20:47.562Z,54.22
2023-05-04T08:24:51.998Z,54.18
2023-05-04T08:28:55.008Z,54.55
2023-05-04T08:32:59.256Z,54.16
2023-05-04T08:37:02.454Z,53.41
2023-05-04T08:41:07.356Z,52.76
2023-05-04T08:45:11.015Z,52.36
2023-05-04T08:49:14.097Z,51.27
2023-05-04T08:53:20.165Z,50.87
2023-05-04T08:57:26.295Z,50.20
2023-05-04T09:01:31.083Z,50.91
2023-05-04T09:05:35.361Z,50.99
2023-05-04T09:09:38.377Z,49.49
2023-05-04T09:13:43.858Z,49.57
2023-05-04T09:17:58.232Z,50.01
2023-05-04T09:22:01.796Z,48.73
2023-05-04T09:26:04.943Z,49.19
2023-05-04T09:30:11.369Z,49.42
2023-05-04T09:34:15.135Z,49.23
2023-05-04T09:38:26.703Z,48.85
2023-05-04T09:42:29.874Z,48.95
2023-05-04T09:46:36.348Z,48.69
2023-05-04T09:50:40.268Z,48.49
2023-05-04T09:54:46.796Z,48.87
2023-05-04T09:58:50.316Z,48.14
2023-05-04T10:02:55.203Z,48.58
2023-05-04T10:06:58.388Z,48.11
2023-05-04T10:11:01.912Z,47.01
2023-05-04T10:15:09.105Z,47.04
2023-05-04T10:19:43.932Z,46.43
2023-05-04T10:24:12.087Z,47.00
2023-05-04T10:28:28.556Z,46.16
2023-05-04T10:32:32.578Z,45.88
2023-05-04T10:36:41.709Z,45.27
2023-05-04T10:40:49.748Z,45.87
2023-05-04T10:44:55.079Z,46.13
2023-05-04T10:48:58.369Z,45.92
2023-05-04T10:53:02.782Z,44.30
2023-05-04T10:57:06.887Z,44.60
2023-05-04T11:01:13.179Z,43.05
2023-05-04T11:05:20.222Z,42.81
2023-05-04T11:09:24.997Z,42.99
2023-05-04T11:13:29.948Z,43.52
2023-05-04T11:17:34.486Z,43.31
2023-05-04T11:21:37.645Z,42.52
2023-05-04T11:25:42.041Z,42.42
2023-05-04T11:29:54.583Z,42.76
2023-05-04T11:33:57.607Z,42.99
2023-05-04T11:38:00.977Z,42.77
2023-05-04T11:42:09.107Z,43.46
2023-05-04T11:46:12.920Z,43.13
2023-05-04T11:50:17.846Z,42.16
2023-05-04T11:54:22.233Z,42.37
2023-05-04T11:58:27.085Z,42.59
2023-05-04T12:02:30.211Z,41.73
2023-05-04T12:06:34.308Z,42.16
2023-05-04T12:10:37.304Z,40.77
2023-05-04T12:14:50.204Z,42.03
2023-05-04T12:19:03.825Z,41.84
2023-05-04T12:23:08.671Z,41.93
2023-05-04T12:27:15.112Z,40.70
2023-05-04T12:31:19.754Z,41.06
2023-05-04T12:35:23.008Z,41.05
2023-05-04T12:39:28.047Z,41.10
2023-05-04T12:43:31.258Z,40.17
2023-05-04T12:47:35.782Z,40.58
2023-05-04T12:51:38.833Z,39.87
2023-05-04T12:55:42.701Z,39.58
2023-05-04T12:59:45.763Z,38.92
2023-05-04T13:03:50.716Z,39.45
2023-05-04T13:07:54.397Z,39.87
2023-05-04T13:11:57.439Z,39.47
2023-05-04T13:16:00.737Z,39.75
2023-05-04T13:20:06.829Z,39.04
2023-05-04T13:24:11.389Z,38.67
2023-05-04T13:28:14.611Z,38.92
2023-05-04T13:32:17.677Z,38.67
2023-05-04T13:36:22.091Z,38.66
2023-05-04T13:40:25.105Z,38.04
2023-05-04T13:44:28.255Z,37.98
2023-05-04T13:48:33.046Z,38.08
2023-05-04T13:52:38.032Z,37.77
2023-05-04T13:56:41.088Z,38.30
2023-05-04T14:00:44.253Z,37.57
2023-05-04T14:04:47.328Z,37.37
2023-05-04T14:08:51.871Z,37.55
2023-05-04T14:12:55.077Z,37.62
2023-05-04T14:16:58.227Z,37.58
2023-05-04T14:21:01.445Z,37.92
2023-05-04T14:25:07.102Z,38.59
2023-05-04T14:29:10.312Z,39.38
2023-05-04T14:33:13.391Z,38.19
2023-05-04T14:37:16.842Z,38.20
2023-05-04T14:41:21.251Z,37.47
2023-05-04T14:45:24.365Z,38.14
2023-05-04T14:49:36.705Z,37.66
2023-05-04T14:53:41.116Z,37.76
2023-05-04T14:57:45.568Z,37.82
2023-05-04T15:01:48.695Z,38.11
2023-05-04T15:05:51.871Z,37.80
2023-05-04T15:09:55.035Z,37.46
2023-05-04T15:13:59.485Z,37.57
2023-05-04T15:18:02.694Z,37.12
2023-05-04T15:22:06.073Z,37.75
2023-05-04T15:26:09.098Z,37.56
2023-05-04T15:30:14.194Z,37.53
2023-05-04T15:34:18.635Z,38.21
2023-05-04T15:38:22.086Z,38.19
2023-05-04T15:42:25.136Z,38.29
2023-05-04T15:46:29.578Z,38.43
2023-05-04T15:50:33.261Z,37.88
2023-05-04T15:54:36.451Z,37.65
2023-05-04T15:58:39.450Z,38.63
2023-05-04T16:02:43.970Z,38.08
2023-05-04T16:06:47.827Z,38.19
2023-05-04T16:10:52.021Z,38.34
2023-05-04T16:14:55.047Z,37.98
2023-05-04T16:18:59.471Z,38.17
2023-05-04T16:23:03.001Z,38.11
2023-05-04T16:27:06.818Z,38.22
2023-05-04T16:31:12.001Z,37.67
2023-05-04T16:35:16.774Z,37.89
2023-05-04T16:39:20.359Z,38.35
2023-05-04T16:43:24.080Z,38.94
2023-05-04T16:47:28.380Z,37.96
2023-05-04T16:51:32.885Z,38.59
2023-05-04T16:55:37.233Z,38.73
2023-05-04T16:59:40.997Z,39.44
2023-05-04T17:03:44.250Z,39.69
2023-05-04T17:07:50.918Z,39.71
2023-05-04T17:11:54.213Z,40.27
2023-05-04T17:15:59.868Z,40.11
2023-05-04T17:20:08.552Z,39.92
2023-05-04T17:24:18.490Z,40.38
2023-05-04T17:28:21.485Z,40.27
2023-05-04T17:32:24.572Z,40.72
2023-05-04T17:36:28.173Z,40.96
2023-05-04T17:40:32.594Z,40.98
2023-05-04T17:44:35.621Z,41.28
2023-05-04T17:48:38.937Z,41.63
2023-05-04T17:52:41.932Z,41.98
2023-05-04T17:56:46.336Z,42.46
2023-05-04T18:00:51.332Z,42.66
2023-05-04T18:04:56.265Z,43.08
2023-05-04T18:08:59.663Z,43.14
2023-05-04T18:13:04.234Z,43.42
2023-05-04T18:17:07.920Z,43.20
2023-05-04T18:21:11.148Z,42.70
2023-05-04T18:25:15.385Z,42.42
2023-05-04T18:29:19.928Z,42.51
2023-05-04T18:33:23.109Z,42.70
2023-05-04T18:37:26.549Z,43.27
2023-05-04T18:41:29.881Z,43.55
2023-05-04T18:45:34.577Z,43.99
2023-05-04T18:49:37.601Z,44.32
2023-05-04T18:53:40.679Z,45.03
2023-05-04T18:57:44.333Z,45.40
2023-05-04T19:01:48.732Z,46.48
2023-05-04T19:05:51.973Z,47.15
2023-05-04T19:09:55.466Z,47.32
2023-05-04T19:13:58.986Z,47.81
2023-05-04T19:18:03.785Z,47.91
2023-05-04T19:22:07.475Z,47.98
2023-05-04T19:26:10.530Z,48.57
2023-05-04T19:30:13.866Z,48.83
2023-05-04T19:34:18.321Z,48.61
2023-05-04T19:38:21.323Z,48.75
2023-05-04T19:42:24.438Z,48.68
2023-05-04T19:46:27.446Z,49.04
2023-05-04T19:50:32.152Z,49.48
2023-05-04T19:54:38.318Z,49.72
2023-05-04T19:58:41.572Z,50.03
2023-05-04T20:02:44.716Z,49.93
2023-05-04T20:06:49.250Z,49.75
2023-05-04T20:10:52.266Z,49.61
2023-05-04T20:14:55.520Z,49.48
2023-05-04T20:18:59.604Z,49.54
2023-05-04T20:23:05.052Z,49.87
2023-05-04T20:27:08.280Z,50.05
2023-05-04T20:31:12.252Z,49.99
2023-05-04T20:35:15.228Z,50.34
2023-05-04T20:39:19.962Z,49.93
2023-05-04T20:43:22.929Z,49.99
2023-05-04T20:47:26.307Z,49.93
2023-05-04T20:51:29.595Z,49.79
2023-05-04T20:55:33.972Z,50.28
2023-05-04T20:59:37.039Z,50.32
2023-05-04T21:03:40.186Z,50.10
2023-05-04T21:07:43.287Z,50.50
2023-05-04T21:11:47.729Z,50.85
2023-05-04T21:15:51.086Z,50.81
2023-05-04T21:19:54.244Z,51.10
2023-05-04T21:23:57.244Z,51.14
2023-05-04T21:28:01.711Z,51.01
2023-05-04T21:32:05.924Z,51.24
2023-05-04T21:36:13.834Z,51.57
2023-05-04T21:40:16.858Z,51.59
2023-05-04T21:44:21.265Z,51.35
2023-05-04T21:48:24.329Z,51.40
2023-05-04T21:52:27.533Z,51.51
2023-05-04T21:56:31.496Z,52.02
2023-05-04T22:00:36.095Z,52.13
2023-05-04T22:04:43.396Z,52.05
2023-05-04T22:08:46.701Z,51.90
2023-05-04T22:12:49.884Z,52.22
2023-05-04T22:16:54.561Z,52.23
2023-05-04T22:20:57.715Z,52.27
2023-05-04T22:25:00.724Z,52.48
2023-05-04T22:29:03.695Z,52.11
2023-05-04T22:33:08.245Z,52.10
2023-05-04T22:37:12.005Z,52.12
2023-05-04T22:41:15.122Z,52.73
2023-05-04T22:45:18.751Z,52.84
2023-05-04T22:49:23.136Z,53.17
2023-05-04T22:53:26.231Z,53.48
2023-05-04T22:57:29.296Z,53.91
2023-05-04T23:01:32.527Z,54.04
2023-05-04T23:05:37.374Z,54.44
2023-05-04T23:09:43.259Z,54.22
2023-05-04T23:13:46.246Z,54.56
2023-05-04T23:17:49.467Z,54.69
2023-05-04T23:21:54.114Z,54.77
2023-05-04T23:25:57.286Z,55.12
2023-05-04T23:30:00.385Z,55.22
2023-05-04T23:34:03.422Z,55.23
2023-05-04T23:38:11.001Z,55.74
2023-05-04T23:42:14.136Z,55.79
2023-05-04T23:46:17.193Z,55.81
2023-05-04T23:50:20.225Z,56.15
2023-05-04T23:54:24.661Z,56.55
2023-05-04T23:58:28.033Z,56.56
